createdAt,value
2019-06-27T00:00:18.967Z,88.06
2019-06-27T00:02:52.587Z,87.85
2019-06-27T00:05:25.853Z,88.23
2019-06-27T00:07:59.482Z,88.17
2019-06-27T00:10:34.438Z,87.21
2019-06-27T00:13:08.642Z,87.03
2019-06-27T00:15:41.601Z,87.36
2019-06-27T00:18:15.055Z,87.47
2019-06-27T00:20:48.560Z,87.74
2019-06-27T00:23:46.004Z,88.38
2019-06-27T00:26:20.351Z,89.15
2019-06-27T00:28:54.571Z,89.49
2019-06-27T00:31:28.318Z,89.97
2019-06-27T00:34:01.925Z,89.62
2019-06-27T00:36:35.182Z,89.44
2019-06-27T00:39:08.600Z,90.00
2019-06-27T00:41:42.165Z,90.13
2019-06-27T00:44:16.185Z,90.12
2019-06-27T00:46:50.633Z,90.44
2019-06-27T00:49:23.937Z,90.84
2019-06-27T00:51:56.953Z,90.79
2019-06-27T00:54:29.871Z,91.12
2019-06-27T00:57:13.417Z,92.11
2019-06-27T00:59:38.676Z,92.27
2019-06-27T01:02:12.353Z,92.54
2019-06-27T01:04:45.743Z,92.74
2019-06-27T01:07:19.423Z,93.14
2019-06-27T01:09:52.976Z,92.91
2019-06-27T01:12:26.493Z,93.14
2019-06-27T01:15:00.024Z,93.73
2019-06-27T01:17:34.422Z,94.17
2019-06-27T01:20:08.668Z,94.27
2019-06-27T01:22:41.947Z,94.42
2019-06-27T01:25:14.944Z,94.77
2019-06-27T01:27:48.508Z,94.75
2019-06-27T01:30:22.549Z,94.79
2019-06-27T01:32:56.260Z,95.08
2019-06-27T01:35:29.507Z,95.41
2019-06-27T01:38:02.514Z,95.61
2019-06-27T01:40:35.856Z,95.70
2019-06-27T01:43:08.807Z,95.52
2019-06-27T01:45:48.101Z,94.51
2019-06-27T01:48:21.082Z,94.97
2019-06-27T01:50:54.519Z,95.66
2019-06-27T01:53:27.909Z,96.30
2019-06-27T01:56:01.675Z,96.45
2019-06-27T01:58:34.660Z,95.45
2019-06-27T02:01:08.808Z,95.33
2019-06-27T02:03:42.094Z,95.67
2019-06-27T02:06:15.695Z,95.74
2019-06-27T02:08:49.342Z,94.77
2019-06-27T02:11:30.081Z,94.86
2019-06-27T02:14:03.958Z,96.33
2019-06-27T02:16:37.652Z,97.22
2019-06-27T02:19:10.629Z,97.78
2019-06-27T02:21:45.760Z,98.37
2019-06-27T02:24:19.245Z,99.07
2019-06-27T02:26:53.524Z,99.51
2019-06-27T02:29:26.588Z,99.55
2019-06-27T02:32:00.080Z,99.68
2019-06-27T02:34:33.884Z,99.63
2019-06-27T02:37:07.127Z,99.26
2019-06-27T02:39:40.691Z,98.98
2019-06-27T02:42:17.558Z,99.20
2019-06-27T02:44:51.343Z,99.35
2019-06-27T02:47:24.779Z,99.80
2019-06-27T02:49:58.401Z,100.00
2019-06-27T02:52:32.070Z,100.00
2019-06-27T02:55:05.465Z,100.00
2019-06-27T02:57:38.513Z,100.00
2019-06-27T03:00:12.880Z,100.00
2019-06-27T03:02:46.302Z,100.00
2019-06-27T03:05:20.790Z,100.00
2019-06-27T03:07:54.707Z,100.00
2019-06-27T03:10:28.179Z,100.00
2019-06-27T03:13:01.252Z,100.00
2019-06-27T03:15:34.385Z,100.00
2019-06-27T03:18:08.093Z,100.00
2019-06-27T03:20:41.760Z,100.00
2019-06-27T03:23:15.160Z,100.00
2019-06-27T03:25:48.551Z,100.00
2019-06-27T03:28:22.000Z,100.00
2019-06-27T03:30:54.950Z,100.00
2019-06-27T03:33:28.588Z,100.00
2019-06-27T03:36:02.217Z,100.00
2019-06-27T03:38:35.541Z,100.00
2019-06-27T03:41:09.347Z,100.00
2019-06-27T03:43:42.161Z,100.00
2019-06-27T03:46:15.846Z,100.00
2019-06-27T03:48:48.741Z,100.00
2019-06-27T03:51:21.606Z,100.00
2019-06-27T03:53:54.807Z,100.00
2019-06-27T03:56:28.073Z,100.00
2019-06-27T03:59:12.058Z,100.00
2019-06-27T04:01:37.609Z,100.00
2019-06-27T04:04:11.042Z,100.00
2019-06-27T04:06:44.779Z,100.00
2019-06-27T04:09:19.147Z,100.00
2019-06-27T04:11:53.813Z,100.00
2019-06-27T04:14:30.473Z,100.00
2019-06-27T04:17:04.090Z,100.00
2019-06-27T04:19:36.905Z,100.00
2019-06-27T04:22:10.278Z,100.00
2019-06-27T04:24:43.775Z,100.00
2019-06-27T04:27:17.366Z,100.00
2019-06-27T04:29:50.547Z,100.00
2019-06-27T04:32:23.926Z,100.00
2019-06-27T04:34:57.773Z,100.00
2019-06-27T04:37:31.038Z,100.00
2019-06-27T04:40:04.615Z,100.00
2019-06-27T04:42:38.211Z,100.00
2019-06-27T04:45:13.520Z,100.00
2019-06-27T04:47:47.205Z,99.53
2019-06-27T04:50:22.634Z,99.30
2019-06-27T04:52:56.193Z,98.38
2019-06-27T04:55:29.762Z,97.51
2019-06-27T04:58:03.397Z,97.02
2019-06-27T05:00:38.584Z,97.43
2019-06-27T05:03:11.940Z,97.16
2019-06-27T05:05:45.874Z,96.89
2019-06-27T05:08:21.788Z,96.33
2019-06-27T05:10:55.162Z,95.25
2019-06-27T05:13:29.682Z,94.44
2019-06-27T05:16:03.252Z,93.62
2019-06-27T05:18:36.720Z,92.79
2019-06-27T05:21:10.333Z,92.06
2019-06-27T05:23:44.424Z,91.58
2019-06-27T05:26:18.333Z,90.12
2019-06-27T05:28:52.114Z,88.79
2019-06-27T05:31:25.975Z,87.97
2019-06-27T05:33:59.463Z,87.02
2019-06-27T05:36:33.411Z,86.45
2019-06-27T05:39:07.610Z,85.89
2019-06-27T05:41:41.215Z,85.20
2019-06-27T05:44:15.195Z,83.34
2019-06-27T05:46:49.016Z,82.30
2019-06-27T05:49:22.550Z,81.57
2019-06-27T05:51:56.073Z,80.77
2019-06-27T05:54:29.968Z,79.17
2019-06-27T05:57:03.928Z,76.68
2019-06-27T05:59:38.053Z,75.04
2019-06-27T06:02:14.754Z,74.24
2019-06-27T06:04:50.166Z,73.54
2019-06-27T06:07:24.517Z,73.41
2019-06-27T06:10:02.110Z,73.13
2019-06-27T06:12:35.301Z,72.90
2019-06-27T06:15:08.920Z,72.66
2019-06-27T06:17:42.432Z,71.91
2019-06-27T06:20:16.247Z,70.70
2019-06-27T06:22:50.901Z,69.83
2019-06-27T06:25:25.119Z,68.92
2019-06-27T06:27:58.538Z,63.37
2019-06-27T06:30:44.367Z,56.99
2019-06-27T06:33:11.657Z,55.86
2019-06-27T06:35:46.386Z,51.44
2019-06-27T06:38:21.724Z,48.59
2019-06-27T06:40:56.271Z,47.62
2019-06-27T06:43:31.118Z,45.98
2019-06-27T06:46:07.386Z,44.94
2019-06-27T06:48:41.472Z,41.66
2019-06-27T06:51:16.264Z,40.06
2019-06-27T06:53:50.001Z,38.80
2019-06-27T06:56:23.521Z,38.03
2019-06-27T06:58:57.567Z,37.39
2019-06-27T07:01:31.619Z,36.58
2019-06-27T07:04:05.425Z,35.89
2019-06-27T07:06:39.480Z,35.66
2019-06-27T07:09:13.077Z,35.68
2019-06-27T07:11:49.953Z,35.51
2019-06-27T07:14:27.227Z,35.39
2019-06-27T07:17:03.140Z,35.43
2019-06-27T07:19:37.845Z,35.21
2019-06-27T07:22:14.467Z,35.03
2019-06-27T07:24:49.874Z,34.40
2019-06-27T07:27:24.461Z,33.60
2019-06-27T07:29:59.358Z,33.32
2019-06-27T07:32:33.010Z,32.44
2019-06-27T07:35:06.989Z,32.08
2019-06-27T07:37:41.423Z,31.32
2019-06-27T07:40:17.086Z,31.53
2019-06-27T07:42:51.117Z,31.26
2019-06-27T07:45:25.037Z,30.73
2019-06-27T07:47:59.474Z,30.80
2019-06-27T07:50:33.728Z,29.81
2019-06-27T07:53:09.735Z,29.32
2019-06-27T07:55:43.566Z,29.25
2019-06-27T07:58:17.402Z,28.75
2019-06-27T08:00:51.776Z,27.77
2019-06-27T08:03:25.280Z,27.45
2019-06-27T08:05:59.421Z,27.79
2019-06-27T08:08:33.522Z,27.26
2019-06-27T08:11:07.448Z,27.17
2019-06-27T08:13:41.228Z,28.03
2019-06-27T08:16:15.115Z,26.93
2019-06-27T08:18:48.472Z,26.42
2019-06-27T08:21:22.882Z,25.44
2019-06-27T08:23:56.514Z,26.28
2019-06-27T08:26:30.349Z,26.35
2019-06-27T08:29:08.421Z,26.44
2019-06-27T08:31:51.321Z,27.46
2019-06-27T08:34:21.253Z,26.94
2019-06-27T08:36:55.086Z,25.77
2019-06-27T08:39:28.395Z,25.20
2019-06-27T08:42:02.046Z,24.71
2019-06-27T08:44:35.965Z,24.33
2019-06-27T08:47:09.756Z,23.18
2019-06-27T08:49:45.255Z,23.37
2019-06-27T08:52:19.542Z,23.87
2019-06-27T08:54:53.246Z,23.48
2019-06-27T08:57:26.471Z,23.40
2019-06-27T09:00:00.079Z,23.30
2019-06-27T09:02:33.394Z,23.27
2019-06-27T09:05:06.738Z,22.63
2019-06-27T09:07:43.933Z,22.56
2019-06-27T09:10:20.974Z,23.60
2019-06-27T09:12:54.715Z,23.51
2019-06-27T09:15:29.230Z,22.37
2019-06-27T09:18:02.784Z,23.19
2019-06-27T09:20:36.275Z,22.97
2019-06-27T09:23:12.914Z,22.06
2019-06-27T09:25:46.693Z,22.38
2019-06-27T09:28:22.022Z,23.00
2019-06-27T09:30:56.448Z,22.41
2019-06-27T09:33:30.587Z,22.73
2019-06-27T09:36:06.301Z,22.29
2019-06-27T09:38:40.348Z,22.28
2019-06-27T09:41:14.617Z,21.48
2019-06-27T09:43:49.031Z,23.58
2019-06-27T09:46:23.621Z,21.12
2019-06-27T09:48:59.181Z,19.67
2019-06-27T09:51:34.006Z,19.35
2019-06-27T09:54:07.566Z,19.09
2019-06-27T09:56:41.523Z,18.91
2019-06-27T09:59:15.826Z,18.09
2019-06-27T10:01:49.062Z,17.45
2019-06-27T10:04:24.910Z,17.80
2019-06-27T10:06:59.106Z,17.97
2019-06-27T10:09:33.224Z,17.36
2019-06-27T10:12:06.865Z,17.64
2019-06-27T10:14:41.209Z,17.51
2019-06-27T10:17:18.952Z,17.58
2019-06-27T10:19:52.815Z,17.63
2019-06-27T10:22:26.534Z,19.10
2019-06-27T10:24:59.839Z,19.16
2019-06-27T10:27:35.000Z,18.89
2019-06-27T10:30:09.701Z,18.67
2019-06-27T10:32:57.832Z,18.39
2019-06-27T10:35:18.809Z,18.29
2019-06-27T10:37:53.209Z,18.02
2019-06-27T10:40:28.031Z,17.63
2019-06-27T10:43:01.687Z,18.33
2019-06-27T10:45:35.339Z,18.76
2019-06-27T10:48:09.493Z,19.20
2019-06-27T10:50:46.270Z,17.98
2019-06-27T10:53:19.379Z,18.72
2019-06-27T10:55:53.611Z,18.12
2019-06-27T10:58:27.821Z,18.29
2019-06-27T11:01:01.204Z,18.19
2019-06-27T11:03:38.191Z,18.20
2019-06-27T11:06:16.716Z,18.44
2019-06-27T11:08:50.180Z,17.77
2019-06-27T11:11:28.254Z,17.37
2019-06-27T11:14:01.545Z,16.43
2019-06-27T11:16:35.206Z,16.19
2019-06-27T11:19:08.526Z,17.39
2019-06-27T11:21:42.132Z,15.91
2019-06-27T11:24:15.408Z,16.29
2019-06-27T11:26:50.219Z,16.68
2019-06-27T11:29:24.767Z,16.38
2019-06-27T11:31:58.285Z,17.44
2019-06-27T11:34:35.011Z,16.69
2019-06-27T11:37:08.744Z,15.83
2019-06-27T11:39:42.172Z,16.30
2019-06-27T11:42:16.634Z,16.39
2019-06-27T11:44:50.921Z,15.98
2019-06-27T11:47:25.375Z,15.98
2019-06-27T11:49:59.022Z,16.17
2019-06-27T11:52:34.110Z,16.29
2019-06-27T11:55:08.479Z,15.69
2019-06-27T11:57:42.956Z,15.99
2019-06-27T12:00:21.600Z,16.94
2019-06-27T12:02:57.369Z,16.78
2019-06-27T12:05:33.693Z,17.97
2019-06-27T12:08:26.603Z,17.43
2019-06-27T12:11:11.053Z,17.08
2019-06-27T12:13:47.798Z,17.08
2019-06-27T12:16:25.587Z,17.12
2019-06-27T12:19:01.506Z,17.21
2019-06-27T12:21:37.113Z,16.43
2019-06-27T12:24:11.434Z,16.14
2019-06-27T12:26:49.582Z,17.24
2019-06-27T12:29:23.502Z,17.49
2019-06-27T12:31:57.311Z,17.66
2019-06-27T12:34:30.940Z,17.45
2019-06-27T12:37:04.529Z,17.81
2019-06-27T12:39:38.368Z,17.42
2019-06-27T12:42:28.370Z,16.52
2019-06-27T12:44:50.289Z,15.60
2019-06-27T12:47:24.243Z,16.33
2019-06-27T12:50:02.645Z,16.65
2019-06-27T12:52:35.178Z,16.60
2019-06-27T12:55:10.394Z,16.66
2019-06-27T12:57:44.720Z,16.91
2019-06-27T13:00:18.620Z,17.06
2019-06-27T13:02:52.525Z,16.78
2019-06-27T13:05:28.093Z,16.82
2019-06-27T13:08:02.271Z,16.89
2019-06-27T13:10:45.307Z,16.97
2019-06-27T13:13:19.344Z,16.63
2019-06-27T13:15:59.600Z,16.43
2019-06-27T13:18:33.196Z,17.04
2019-06-27T13:21:06.972Z,16.49
2019-06-27T13:23:41.668Z,16.60
2019-06-27T13:26:15.553Z,16.71
2019-06-27T13:28:59.150Z,16.55
2019-06-27T13:31:32.911Z,16.05
2019-06-27T13:34:06.780Z,15.73
2019-06-27T13:36:40.870Z,16.21
2019-06-27T13:39:15.743Z,15.41
2019-06-27T13:41:51.163Z,15.95
2019-06-27T13:44:24.968Z,15.38
2019-06-27T13:47:03.918Z,16.11
2019-06-27T13:49:37.503Z,15.45
2019-06-27T13:52:12.102Z,15.87
2019-06-27T13:54:46.234Z,15.49
2019-06-27T13:57:21.934Z,15.39
2019-06-27T13:59:57.891Z,15.26
2019-06-27T14:02:33.069Z,15.47
2019-06-27T14:05:07.551Z,15.04
2019-06-27T14:07:42.078Z,15.56
2019-06-27T14:10:26.653Z,15.64
2019-06-27T14:13:01.683Z,16.01
2019-06-27T14:15:37.872Z,16.64
2019-06-27T14:18:12.633Z,16.18
2019-06-27T14:20:46.029Z,16.25
2019-06-27T14:23:25.211Z,16.17
2019-06-27T14:25:59.533Z,16.45
2019-06-27T14:28:34.022Z,17.35
2019-06-27T14:31:09.029Z,16.87
2019-06-27T14:33:43.584Z,16.77
2019-06-27T14:36:18.404Z,16.38
2019-06-27T14:38:52.579Z,16.24
2019-06-27T14:41:27.984Z,15.72
2019-06-27T14:44:03.641Z,15.71
2019-06-27T14:46:39.544Z,16.09
2019-06-27T14:49:13.904Z,16.74
2019-06-27T14:51:48.995Z,16.50
2019-06-27T14:54:23.204Z,17.33
2019-06-27T14:56:59.228Z,16.60
2019-06-27T14:59:34.154Z,16.71
2019-06-27T15:02:08.541Z,17.23
2019-06-27T15:04:45.075Z,17.19
2019-06-27T15:07:22.132Z,17.48
2019-06-27T15:09:57.255Z,17.91
2019-06-27T15:12:35.515Z,18.57
2019-06-27T15:15:12.952Z,18.87
2019-06-27T15:17:47.874Z,18.13
2019-06-27T15:20:22.206Z,17.89
2019-06-27T15:22:59.011Z,18.94
2019-06-27T15:25:33.681Z,18.50
2019-06-27T15:28:07.671Z,18.90
2019-06-27T15:30:41.678Z,18.67
2019-06-27T15:33:18.488Z,18.94
2019-06-27T15:35:53.176Z,19.43
2019-06-27T15:38:27.358Z,19.21
2019-06-27T15:41:01.178Z,19.65
2019-06-27T15:43:35.234Z,19.57
2019-06-27T15:46:09.060Z,19.62
2019-06-27T15:48:45.012Z,19.99
2019-06-27T15:51:19.076Z,19.79
2019-06-27T15:53:53.025Z,20.36
2019-06-27T15:56:27.124Z,20.27
2019-06-27T15:59:03.578Z,20.12
2019-06-27T16:01:36.523Z,20.76
2019-06-27T16:04:24.460Z,20.71
2019-06-27T16:06:46.387Z,20.64
2019-06-27T16:09:20.681Z,21.04
2019-06-27T16:11:54.986Z,21.68
2019-06-27T16:14:29.323Z,21.90
2019-06-27T16:17:04.179Z,22.43
2019-06-27T16:19:38.134Z,22.75
2019-06-27T16:22:12.572Z,23.23
2019-06-27T16:24:45.956Z,22.69
2019-06-27T16:27:19.667Z,22.99
2019-06-27T16:29:53.956Z,23.46
2019-06-27T16:32:27.563Z,23.90
2019-06-27T16:35:03.213Z,23.73
2019-06-27T16:37:37.684Z,23.79
2019-06-27T16:40:12.803Z,23.88
2019-06-27T16:42:47.381Z,24.66
2019-06-27T16:45:21.255Z,24.82
2019-06-27T16:47:55.859Z,24.65
2019-06-27T16:50:29.636Z,24.34
2019-06-27T16:53:03.946Z,24.80
2019-06-27T16:55:37.869Z,24.43
2019-06-27T16:58:13.683Z,24.25
2019-06-27T17:00:48.386Z,24.64
2019-06-27T17:03:25.147Z,24.70
2019-06-27T17:05:59.242Z,24.68
2019-06-27T17:08:34.532Z,24.66
2019-06-27T17:11:09.167Z,24.75
2019-06-27T17:13:45.632Z,24.91
2019-06-27T17:16:22.249Z,25.15
2019-06-27T17:18:55.815Z,25.77
2019-06-27T17:21:30.986Z,26.04
2019-06-27T17:24:09.350Z,26.11
2019-06-27T17:26:43.943Z,28.26
2019-06-27T17:29:21.379Z,30.00
2019-06-27T17:31:56.608Z,30.79
2019-06-27T17:34:33.019Z,32.04
2019-06-27T17:37:08.770Z,32.02
2019-06-27T17:39:47.149Z,32.11
2019-06-27T17:42:23.022Z,31.13
2019-06-27T17:44:58.669Z,32.02
2019-06-27T17:47:33.512Z,31.95
2019-06-27T17:50:11.637Z,31.70
2019-06-27T17:52:47.892Z,32.29
2019-06-27T17:55:25.616Z,31.35
2019-06-27T17:58:01.596Z,30.69
2019-06-27T18:00:39.039Z,30.49
2019-06-27T18:03:15.095Z,30.50
2019-06-27T18:05:48.836Z,29.10
2019-06-27T18:08:23.419Z,30.26
2019-06-27T18:10:58.392Z,32.25
2019-06-27T18:13:32.671Z,34.81
2019-06-27T18:16:07.016Z,36.12
2019-06-27T18:18:42.038Z,36.79
2019-06-27T18:21:16.117Z,38.16
2019-06-27T18:23:50.699Z,38.73
2019-06-27T18:26:25.658Z,39.32
2019-06-27T18:29:00.611Z,39.77
2019-06-27T18:31:35.253Z,40.47
2019-06-27T18:34:11.109Z,41.17
2019-06-27T18:36:45.081Z,42.09
2019-06-27T18:39:20.315Z,42.41
2019-06-27T18:41:54.653Z,43.02
2019-06-27T18:44:30.566Z,43.29
2019-06-27T18:47:04.682Z,44.12
2019-06-27T18:49:41.085Z,44.50
2019-06-27T18:52:15.021Z,44.43
2019-06-27T18:54:54.331Z,45.53
2019-06-27T18:57:30.887Z,46.35
2019-06-27T19:00:06.392Z,47.29
2019-06-27T19:02:42.046Z,47.54
2019-06-27T19:05:20.742Z,47.12
2019-06-27T19:07:55.128Z,47.96
2019-06-27T19:10:29.717Z,48.95
2019-06-27T19:13:11.485Z,49.32
2019-06-27T19:15:46.537Z,49.35
2019-06-27T19:18:38.001Z,49.25
2019-06-27T19:21:16.579Z,48.55
2019-06-27T19:24:05.351Z,48.29
2019-06-27T19:26:39.148Z,51.38
2019-06-27T19:29:13.105Z,54.79
2019-06-27T19:31:51.137Z,54.29
2019-06-27T19:34:25.315Z,54.60
2019-06-27T19:37:02.964Z,55.26
2019-06-27T19:39:37.634Z,56.11
2019-06-27T19:42:14.944Z,55.63
2019-06-27T19:44:50.391Z,53.07
2019-06-27T19:47:27.274Z,52.79
2019-06-27T19:50:01.453Z,53.18
2019-06-27T19:52:38.424Z,52.50
2019-06-27T19:55:14.068Z,52.33
2019-06-27T19:57:49.104Z,51.93
2019-06-27T20:00:24.919Z,52.16
2019-06-27T20:02:59.629Z,52.61
2019-06-27T20:05:35.554Z,53.04
2019-06-27T20:08:19.300Z,53.47
2019-06-27T20:10:48.908Z,53.18
2019-06-27T20:13:26.001Z,53.38
2019-06-27T20:16:01.191Z,52.92
2019-06-27T20:18:39.234Z,53.32
2019-06-27T20:21:22.102Z,53.94
2019-06-27T20:23:58.615Z,53.97
2019-06-27T20:26:33.895Z,54.21
2019-06-27T20:29:09.273Z,55.40
2019-06-27T20:31:44.962Z,54.82
2019-06-27T20:34:18.728Z,54.93
2019-06-27T20:37:02.231Z,55.58
2019-06-27T20:39:39.411Z,56.29
2019-06-27T20:42:16.340Z,57.33
2019-06-27T20:44:52.111Z,58.10
2019-06-27T20:47:28.416Z,62.16
2019-06-27T20:50:03.062Z,63.10
2019-06-27T20:52:38.068Z,63.14
2019-06-27T20:55:12.578Z,64.26
2019-06-27T20:57:47.616Z,65.87
2019-06-27T21:00:22.546Z,66.67
2019-06-27T21:02:56.538Z,66.82
2019-06-27T21:05:31.435Z,64.72
2019-06-27T21:08:09.301Z,63.24
2019-06-27T21:10:44.433Z,62.67
2019-06-27T21:13:20.271Z,62.38
2019-06-27T21:15:54.694Z,62.50
2019-06-27T21:18:31.240Z,62.32
2019-06-27T21:21:08.021Z,62.17
2019-06-27T21:23:46.312Z,62.46
2019-06-27T21:26:20.536Z,62.93
2019-06-27T21:28:57.213Z,63.13
2019-06-27T21:31:37.756Z,63.51
2019-06-27T21:34:15.450Z,65.33
2019-06-27T21:36:50.057Z,65.33
2019-06-27T21:39:25.094Z,65.83
2019-06-27T21:42:00.354Z,65.42
2019-06-27T21:44:36.921Z,65.72
2019-06-27T21:47:12.456Z,67.28
2019-06-27T21:49:49.149Z,68.13
2019-06-27T21:52:23.236Z,68.82
2019-06-27T21:54:57.304Z,69.22
2019-06-27T21:57:31.295Z,68.96
2019-06-27T22:00:05.479Z,68.85
2019-06-27T22:02:40.734Z,68.86
2019-06-27T22:05:16.523Z,69.34
2019-06-27T22:07:53.446Z,69.83
2019-06-27T22:10:26.160Z,70.30
2019-06-27T22:12:59.848Z,70.98
2019-06-27T22:15:33.374Z,71.73
2019-06-27T22:18:07.693Z,72.08
2019-06-27T22:20:41.934Z,72.65
2019-06-27T22:23:18.743Z,74.72
2019-06-27T22:25:53.104Z,74.87
2019-06-27T22:28:27.420Z,75.25
2019-06-27T22:31:01.520Z,75.62
2019-06-27T22:33:37.019Z,75.45
2019-06-27T22:36:11.119Z,75.47
2019-06-27T22:39:02.563Z,75.62
2019-06-27T22:41:53.558Z,75.79
2019-06-27T22:44:46.912Z,76.33
2019-06-27T22:47:38.432Z,76.54
2019-06-27T22:50:31.081Z,76.60
2019-06-27T22:53:08.787Z,76.28
2019-06-27T22:55:45.477Z,75.76
2019-06-27T22:58:18.905Z,75.85
2019-06-27T23:00:54.832Z,75.73
2019-06-27T23:03:28.585Z,76.04
2019-06-27T23:06:01.844Z,76.96
2019-06-27T23:08:35.699Z,77.65
2019-06-27T23:11:09.804Z,78.14
2019-06-27T23:13:43.997Z,79.03
2019-06-27T23:16:19.565Z,79.35
2019-06-27T23:18:53.640Z,79.59
2019-06-27T23:21:27.374Z,80.28
2019-06-27T23:24:00.525Z,80.84
2019-06-27T23:26:33.711Z,80.99
2019-06-27T23:29:07.352Z,81.31
2019-06-27T23:31:41.294Z,81.28
2019-06-27T23:34:14.524Z,81.48
2019-06-27T23:36:48.236Z,81.75
2019-06-27T23:39:21.799Z,82.14
2019-06-27T23:41:55.536Z,82.93
2019-06-27T23:44:29.212Z,83.10
2019-06-27T23:47:03.152Z,83.64
2019-06-27T23:49:36.238Z,84.00
2019-06-27T23:52:10.294Z,84.31
2019-06-27T23:54:43.289Z,83.97
2019-06-27T23:57:19.085Z,84.02
2019-06-27T23:59:52.629Z,84.37
